sensor_id;sensor_type;location;lat;lon;timestamp;P1;durP1;ratioP1;P2;durP2;ratioP2
9422;SDS011;4750;49.506;10.400;2022-09-27T00:01:01;1.30;;;1.20;;
9422;SDS011;4750;49.506;10.400;2022-09-27T00:03:47;2.57;;;1.30;;
9422;SDS011;4750;49.506;10.400;2022-09-27T00:06:31;2.00;;;1.23;;
9422;SDS011;4750;49.506;10.400;2022-09-27T00:09:15;3.10;;;1.20;;
9422;SDS011;4750;49.506;10.400;2022-09-27T00:12:00;1.60;;;1.40;;
9422;SDS011;4750;49.506;10.400;2022-09-27T00:14:44;1.33;;;1.23;;
9422;SDS011;4750;49.506;10.400;2022-09-27T00:17:28;2.03;;;1.33;;
9422;SDS011;4750;49.506;10.400;2022-09-27T00:20:12;3.37;;;1.67;;
9422;SDS011;4750;49.506;10.400;2022-09-27T00:22:56;3.97;;;1.73;;
9422;SDS011;4750;49.506;10.400;2022-09-27T00:25:40;1.93;;;1.73;;
9422;SDS011;4750;49.506;10.400;2022-09-27T00:28:24;3.83;;;2.10;;
9422;SDS011;4750;49.506;10.400;2022-09-27T00:31:10;5.67;;;2.07;;
9422;SDS011;4750;49.506;10.400;2022-09-27T00:34:00;2.13;;;1.80;;
9422;SDS011;4750;49.506;10.400;2022-09-27T00:36:45;2.73;;;1.73;;
9422;SDS011;4750;49.506;10.400;2022-09-27T00:39:31;2.80;;;1.87;;
9422;SDS011;4750;49.506;10.400;2022-09-27T00:42:16;2.80;;;1.90;;
9422;SDS011;4750;49.506;10.400;2022-09-27T00:45:01;2.90;;;2.10;;
9422;SDS011;4750;49.506;10.400;2022-09-27T00:47:54;4.80;;;2.10;;
9422;SDS011;4750;49.506;10.400;2022-09-27T00:50:41;2.90;;;1.90;;
9422;SDS011;4750;49.506;10.400;2022-09-27T00:53:32;3.50;;;1.87;;
9422;SDS011;4750;49.506;10.400;2022-09-27T00:56:24;2.73;;;1.80;;
9422;SDS011;4750;49.506;10.400;2022-09-27T00:59:33;3.13;;;1.93;;
9422;SDS011;4750;49.506;10.400;2022-09-27T01:02:18;10.40;;;2.00;;
9422;SDS011;4750;49.506;10.400;2022-09-27T01:05:02;2.70;;;2.20;;
9422;SDS011;4750;49.506;10.400;2022-09-27T01:07:49;2.03;;;1.80;;
9422;SDS011;4750;49.506;10.400;2022-09-27T01:10:35;3.87;;;1.83;;
9422;SDS011;4750;49.506;10.400;2022-09-27T01:13:34;2.47;;;2.00;;
9422;SDS011;4750;49.506;10.400;2022-09-27T01:16:29;2.63;;;1.80;;
9422;SDS011;4750;49.506;10.400;2022-09-27T01:25:54;3.20;;;1.83;;
9422;SDS011;4750;49.506;10.400;2022-09-27T01:32:05;3.00;;;1.90;;
9422;SDS011;4750;49.506;10.400;2022-09-27T01:35:01;3.77;;;1.77;;
9422;SDS011;4750;49.506;10.400;2022-09-27T01:41:16;2.77;;;1.70;;
9422;SDS011;4750;49.506;10.400;2022-09-27T01:44:38;1.93;;;1.50;;
9422;SDS011;4750;49.506;10.400;2022-09-27T01:47:39;1.50;;;1.40;;
9422;SDS011;4750;49.506;10.400;2022-09-27T01:50:56;1.53;;;1.30;;
9422;SDS011;4750;49.506;10.400;2022-09-27T01:53:49;1.93;;;1.10;;
9422;SDS011;4750;49.506;10.400;2022-09-27T01:56:53;1.30;;;1.20;;
9422;SDS011;4750;49.506;10.400;2022-09-27T01:59:52;2.47;;;1.50;;
9422;SDS011;4750;49.506;10.400;2022-09-27T02:03:21;1.30;;;1.20;;
9422;SDS011;4750;49.506;10.400;2022-09-27T02:06:33;1.23;;;1.10;;
9422;SDS011;4750;49.506;10.400;2022-09-27T02:09:34;1.30;;;1.20;;
9422;SDS011;4750;49.506;10.400;2022-09-27T02:12:37;1.00;;;1.00;;
9422;SDS011;4750;49.506;10.400;2022-09-27T02:15:29;1.73;;;1.00;;
9422;SDS011;4750;49.506;10.400;2022-09-27T02:25:04;0.90;;;0.90;;
9422;SDS011;4750;49.506;10.400;2022-09-27T02:28:05;2.10;;;1.10;;
9422;SDS011;4750;49.506;10.400;2022-09-27T02:31:04;0.83;;;0.83;;
9422;SDS011;4750;49.506;10.400;2022-09-27T02:33:53;2.93;;;0.90;;
9422;SDS011;4750;49.506;10.400;2022-09-27T02:36:42;1.50;;;0.90;;
9422;SDS011;4750;49.506;10.400;2022-09-27T02:39:26;1.40;;;1.30;;
9422;SDS011;4750;49.506;10.400;2022-09-27T02:42:21;0.60;;;0.60;;
9422;SDS011;4750;49.506;10.400;2022-09-27T02:45:05;1.07;;;0.63;;
9422;SDS011;4750;49.506;10.400;2022-09-27T02:47:54;0.80;;;0.80;;
9422;SDS011;4750;49.506;10.400;2022-09-27T03:00:58;1.30;;;1.20;;
9422;SDS011;4750;49.506;10.400;2022-09-27T03:07:20;3.40;;;1.17;;
9422;SDS011;4750;49.506;10.400;2022-09-27T03:10:05;0.97;;;0.93;;
9422;SDS011;4750;49.506;10.400;2022-09-27T03:12:49;1.60;;;1.00;;
9422;SDS011;4750;49.506;10.400;2022-09-27T03:15:34;1.00;;;1.00;;
9422;SDS011;4750;49.506;10.400;2022-09-27T03:18:18;0.97;;;0.97;;
9422;SDS011;4750;49.506;10.400;2022-09-27T03:21:02;1.20;;;1.10;;
9422;SDS011;4750;49.506;10.400;2022-09-27T03:23:46;1.10;;;1.10;;
9422;SDS011;4750;49.506;10.400;2022-09-27T03:26:30;3.77;;;1.00;;
9422;SDS011;4750;49.506;10.400;2022-09-27T03:29:14;1.80;;;1.33;;
9422;SDS011;4750;49.506;10.400;2022-09-27T03:32:03;1.73;;;1.30;;
9422;SDS011;4750;49.506;10.400;2022-09-27T03:35:06;1.00;;;1.00;;
9422;SDS011;4750;49.506;10.400;2022-09-27T03:37:50;1.23;;;1.13;;
9422;SDS011;4750;49.506;10.400;2022-09-27T03:40:34;1.20;;;1.10;;
9422;SDS011;4750;49.506;10.400;2022-09-27T03:43:19;1.00;;;1.00;;
9422;SDS011;4750;49.506;10.400;2022-09-27T03:46:03;1.10;;;0.80;;
9422;SDS011;4750;49.506;10.400;2022-09-27T03:48:47;0.73;;;0.73;;
9422;SDS011;4750;49.506;10.400;2022-09-27T03:51:32;1.70;;;0.73;;
9422;SDS011;4750;49.506;10.400;2022-09-27T03:54:16;0.73;;;0.63;;
9422;SDS011;4750;49.506;10.400;2022-09-27T03:57:00;0.83;;;0.70;;
9422;SDS011;4750;49.506;10.400;2022-09-27T03:59:45;1.37;;;0.90;;
9422;SDS011;4750;49.506;10.400;2022-09-27T04:02:48;1.53;;;1.00;;
9422;SDS011;4750;49.506;10.400;2022-09-27T04:05:41;2.40;;;1.10;;
9422;SDS011;4750;49.506;10.400;2022-09-27T04:08:31;2.67;;;1.20;;
9422;SDS011;4750;49.506;10.400;2022-09-27T04:11:15;1.10;;;0.87;;
9422;SDS011;4750;49.506;10.400;2022-09-27T04:14:02;5.70;;;1.20;;
9422;SDS011;4750;49.506;10.400;2022-09-27T04:16:53;5.90;;;2.37;;
9422;SDS011;4750;49.506;10.400;2022-09-27T04:19:46;3.60;;;1.50;;
9422;SDS011;4750;49.506;10.400;2022-09-27T04:22:30;2.73;;;1.40;;
9422;SDS011;4750;49.506;10.400;2022-09-27T04:25:15;2.27;;;1.17;;
9422;SDS011;4750;49.506;10.400;2022-09-27T04:27:59;6.57;;;1.27;;
9422;SDS011;4750;49.506;10.400;2022-09-27T04:30:45;1.53;;;1.10;;
9422;SDS011;4750;49.506;10.400;2022-09-27T04:33:30;1.70;;;1.17;;
9422;SDS011;4750;49.506;10.400;2022-09-27T04:36:26;2.63;;;1.30;;
9422;SDS011;4750;49.506;10.400;2022-09-27T04:39:23;2.97;;;0.87;;
9422;SDS011;4750;49.506;10.400;2022-09-27T04:42:07;2.37;;;1.10;;
9422;SDS011;4750;49.506;10.400;2022-09-27T04:44:52;1.23;;;1.00;;
9422;SDS011;4750;49.506;10.400;2022-09-27T04:47:36;3.13;;;1.23;;
9422;SDS011;4750;49.506;10.400;2022-09-27T04:50:26;2.13;;;1.13;;
9422;SDS011;4750;49.506;10.400;2022-09-27T04:53:19;2.23;;;1.20;;
9422;SDS011;4750;49.506;10.400;2022-09-27T04:56:03;2.17;;;1.30;;
9422;SDS011;4750;49.506;10.400;2022-09-27T04:58:48;1.73;;;1.23;;
9422;SDS011;4750;49.506;10.400;2022-09-27T05:01:32;3.27;;;1.77;;
9422;SDS011;4750;49.506;10.400;2022-09-27T05:04:27;2.63;;;1.53;;
9422;SDS011;4750;49.506;10.400;2022-09-27T05:07:11;1.40;;;1.30;;
9422;SDS011;4750;49.506;10.400;2022-09-27T05:10:03;1.40;;;1.30;;
9422;SDS011;4750;49.506;10.400;2022-09-27T05:12:48;2.00;;;1.23;;
9422;SDS011;4750;49.506;10.400;2022-09-27T05:15:33;3.50;;;1.23;;
9422;SDS011;4750;49.506;10.400;2022-09-27T05:18:38;2.90;;;1.40;;
9422;SDS011;4750;49.506;10.400;2022-09-27T05:21:42;3.10;;;1.17;;
9422;SDS011;4750;49.506;10.400;2022-09-27T05:24:26;3.27;;;1.23;;
9422;SDS011;4750;49.506;10.400;2022-09-27T05:27:16;1.50;;;1.20;;
9422;SDS011;4750;49.506;10.400;2022-09-27T05:30:02;1.53;;;1.37;;
9422;SDS011;4750;49.506;10.400;2022-09-27T05:32:57;6.10;;;1.30;;
9422;SDS011;4750;49.506;10.400;2022-09-27T05:36:00;3.03;;;1.50;;
9422;SDS011;4750;49.506;10.400;2022-09-27T05:38:47;1.33;;;1.20;;
9422;SDS011;4750;49.506;10.400;2022-09-27T05:41:32;1.37;;;1.27;;
9422;SDS011;4750;49.506;10.400;2022-09-27T05:44:16;1.50;;;1.40;;
9422;SDS011;4750;49.506;10.400;2022-09-27T05:47:10;4.90;;;1.83;;
9422;SDS011;4750;49.506;10.400;2022-09-27T05:49:54;2.10;;;1.47;;
9422;SDS011;4750;49.506;10.400;2022-09-27T05:52:39;1.43;;;1.33;;
9422;SDS011;4750;49.506;10.400;2022-09-27T05:55:23;1.23;;;1.20;;
9422;SDS011;4750;49.506;10.400;2022-09-27T05:58:08;1.10;;;1.00;;
9422;SDS011;4750;49.506;10.400;2022-09-27T06:01:00;1.53;;;1.10;;
9422;SDS011;4750;49.506;10.400;2022-09-27T06:04:11;2.70;;;1.33;;
9422;SDS011;4750;49.506;10.400;2022-09-27T06:07:15;1.30;;;1.20;;
9422;SDS011;4750;49.506;10.400;2022-09-27T06:09:59;1.83;;;1.10;;
9422;SDS011;4750;49.506;10.400;2022-09-27T06:12:44;1.10;;;1.00;;
9422;SDS011;4750;49.506;10.400;2022-09-27T06:15:49;0.80;;;0.80;;
9422;SDS011;4750;49.506;10.400;2022-09-27T06:18:35;1.10;;;1.07;;
9422;SDS011;4750;49.506;10.400;2022-09-27T06:21:20;0.80;;;0.80;;
9422;SDS011;4750;49.506;10.400;2022-09-27T06:24:11;0.70;;;0.70;;
9422;SDS011;4750;49.506;10.400;2022-09-27T06:26:55;2.03;;;0.83;;
9422;SDS011;4750;49.506;10.400;2022-09-27T06:30:03;0.50;;;0.50;;
9422;SDS011;4750;49.506;10.400;2022-09-27T06:33:05;0.70;;;0.70;;
9422;SDS011;4750;49.506;10.400;2022-09-27T06:35:55;0.70;;;0.70;;
9422;SDS011;4750;49.506;10.400;2022-09-27T06:38:40;2.10;;;0.73;;
9422;SDS011;4750;49.506;10.400;2022-09-27T06:41:31;1.13;;;0.63;;
9422;SDS011;4750;49.506;10.400;2022-09-27T06:44:26;2.33;;;0.83;;
9422;SDS011;4750;49.506;10.400;2022-09-27T06:47:33;1.23;;;0.90;;
9422;SDS011;4750;49.506;10.400;2022-09-27T06:50:37;2.77;;;1.10;;
9422;SDS011;4750;49.506;10.400;2022-09-27T06:53:23;1.90;;;0.97;;
9422;SDS011;4750;49.506;10.400;2022-09-27T06:56:09;0.70;;;0.70;;
9422;SDS011;4750;49.506;10.400;2022-09-27T06:59:04;0.80;;;0.80;;
9422;SDS011;4750;49.506;10.400;2022-09-27T07:02:07;0.80;;;0.80;;
9422;SDS011;4750;49.506;10.400;2022-09-27T07:05:06;1.10;;;0.80;;
9422;SDS011;4750;49.506;10.400;2022-09-27T07:08:03;0.70;;;0.70;;
9422;SDS011;4750;49.506;10.400;2022-09-27T07:10:49;1.13;;;0.83;;
9422;SDS011;4750;49.506;10.400;2022-09-27T07:13:34;1.60;;;1.10;;
9422;SDS011;4750;49.506;10.400;2022-09-27T07:16:23;0.70;;;0.70;;
9422;SDS011;4750;49.506;10.400;2022-09-27T07:19:08;0.77;;;0.77;;
9422;SDS011;4750;49.506;10.400;2022-09-27T07:21:54;0.77;;;0.77;;
9422;SDS011;4750;49.506;10.400;2022-09-27T07:24:40;0.80;;;0.80;;
9422;SDS011;4750;49.506;10.400;2022-09-27T07:27:24;0.80;;;0.80;;
9422;SDS011;4750;49.506;10.400;2022-09-27T07:30:11;0.80;;;0.80;;
9422;SDS011;4750;49.506;10.400;2022-09-27T07:32:59;0.90;;;0.90;;
9422;SDS011;4750;49.506;10.400;2022-09-27T07:35:45;0.80;;;0.80;;
9422;SDS011;4750;49.506;10.400;2022-09-27T07:38:29;1.73;;;0.50;;
9422;SDS011;4750;49.506;10.400;2022-09-27T07:41:13;1.40;;;0.80;;
9422;SDS011;4750;49.506;10.400;2022-09-27T07:43:58;0.73;;;0.70;;
9422;SDS011;4750;49.506;10.400;2022-09-27T07:46:43;0.90;;;0.53;;
9422;SDS011;4750;49.506;10.400;2022-09-27T07:49:40;2.07;;;0.70;;
9422;SDS011;4750;49.506;10.400;2022-09-27T07:52:40;2.30;;;0.63;;
9422;SDS011;4750;49.506;10.400;2022-09-27T07:55:48;1.00;;;0.87;;
9422;SDS011;4750;49.506;10.400;2022-09-27T07:58:37;2.27;;;0.87;;
9422;SDS011;4750;49.506;10.400;2022-09-27T08:01:24;0.93;;;0.80;;
9422;SDS011;4750;49.506;10.400;2022-09-27T08:04:08;3.03;;;0.70;;
9422;SDS011;4750;49.506;10.400;2022-09-27T08:06:53;1.60;;;0.90;;
9422;SDS011;4750;49.506;10.400;2022-09-27T08:09:37;0.70;;;0.70;;
9422;SDS011;4750;49.506;10.400;2022-09-27T08:12:21;0.60;;;0.60;;
9422;SDS011;4750;49.506;10.400;2022-09-27T08:15:06;0.60;;;0.60;;
9422;SDS011;4750;49.506;10.400;2022-09-27T08:17:51;1.17;;;1.07;;
9422;SDS011;4750;49.506;10.400;2022-09-27T08:20:59;1.27;;;0.87;;
9422;SDS011;4750;49.506;10.400;2022-09-27T08:24:06;0.80;;;0.80;;
9422;SDS011;4750;49.506;10.400;2022-09-27T08:27:10;1.60;;;0.80;;
9422;SDS011;4750;49.506;10.400;2022-09-27T08:30:15;0.80;;;0.80;;
9422;SDS011;4750;49.506;10.400;2022-09-27T08:33:00;1.10;;;0.63;;
9422;SDS011;4750;49.506;10.400;2022-09-27T08:35:48;0.60;;;0.60;;
9422;SDS011;4750;49.506;10.400;2022-09-27T08:38:32;1.33;;;0.80;;
9422;SDS011;4750;49.506;10.400;2022-09-27T08:47:39;0.70;;;0.70;;
9422;SDS011;4750;49.506;10.400;2022-09-27T08:50:41;2.93;;;0.70;;
9422;SDS011;4750;49.506;10.400;2022-09-27T08:56:20;0.60;;;0.60;;
9422;SDS011;4750;49.506;10.400;2022-09-27T08:59:13;0.67;;;0.67;;
9422;SDS011;4750;49.506;10.400;2022-09-27T09:02:04;2.97;;;0.90;;
9422;SDS011;4750;49.506;10.400;2022-09-27T09:05:02;0.63;;;0.63;;
9422;SDS011;4750;49.506;10.400;2022-09-27T09:14:36;0.63;;;0.63;;
9422;SDS011;4750;49.506;10.400;2022-09-27T09:20:54;0.60;;;0.60;;
9422;SDS011;4750;49.506;10.400;2022-09-27T09:26:51;0.93;;;0.80;;
9422;SDS011;4750;49.506;10.400;2022-09-27T09:29:55;0.60;;;0.60;;
9422;SDS011;4750;49.506;10.400;2022-09-27T09:35:53;1.90;;;0.67;;
9422;SDS011;4750;49.506;10.400;2022-09-27T09:45:17;1.00;;;0.83;;
9422;SDS011;4750;49.506;10.400;2022-09-27T09:48:07;0.80;;;0.60;;
9422;SDS011;4750;49.506;10.400;2022-09-27T09:51:00;1.50;;;0.60;;
9422;SDS011;4750;49.506;10.400;2022-09-27T09:53:53;0.80;;;0.63;;
9422;SDS011;4750;49.506;10.400;2022-09-27T09:56:48;3.03;;;0.77;;
9422;SDS011;4750;49.506;10.400;2022-09-27T09:59:39;0.70;;;0.60;;
9422;SDS011;4750;49.506;10.400;2022-09-27T10:02:37;2.17;;;0.67;;
9422;SDS011;4750;49.506;10.400;2022-09-27T10:05:28;1.53;;;0.73;;
9422;SDS011;4750;49.506;10.400;2022-09-27T10:08:18;0.83;;;0.80;;
9422;SDS011;4750;49.506;10.400;2022-09-27T10:11:16;1.10;;;1.00;;
9422;SDS011;4750;49.506;10.400;2022-09-27T10:14:19;0.97;;;0.93;;
9422;SDS011;4750;49.506;10.400;2022-09-27T10:17:09;0.60;;;0.60;;
9422;SDS011;4750;49.506;10.400;2022-09-27T10:19:58;1.17;;;0.77;;
9422;SDS011;4750;49.506;10.400;2022-09-27T10:22:46;1.03;;;0.50;;
9422;SDS011;4750;49.506;10.400;2022-09-27T10:25:55;0.40;;;0.40;;
9422;SDS011;4750;49.506;10.400;2022-09-27T10:32:01;0.50;;;0.50;;
9422;SDS011;4750;49.506;10.400;2022-09-27T10:35:17;0.93;;;0.60;;
9422;SDS011;4750;49.506;10.400;2022-09-27T10:44:29;0.50;;;0.40;;
9422;SDS011;4750;49.506;10.400;2022-09-27T10:47:44;0.60;;;0.60;;
9422;SDS011;4750;49.506;10.400;2022-09-27T10:51:00;0.60;;;0.60;;
9422;SDS011;4750;49.506;10.400;2022-09-27T10:54:02;0.43;;;0.43;;
9422;SDS011;4750;49.506;10.400;2022-09-27T10:57:22;0.57;;;0.50;;
9422;SDS011;4750;49.506;10.400;2022-09-27T11:00:04;0.60;;;0.60;;
9422;SDS011;4750;49.506;10.400;2022-09-27T11:02:53;0.83;;;0.40;;
9422;SDS011;4750;49.506;10.400;2022-09-27T11:05:58;0.53;;;0.53;;
9422;SDS011;4750;49.506;10.400;2022-09-27T11:08:42;1.10;;;0.70;;
9422;SDS011;4750;49.506;10.400;2022-09-27T11:11:32;1.07;;;0.40;;
9422;SDS011;4750;49.506;10.400;2022-09-27T11:14:20;0.77;;;0.50;;
9422;SDS011;4750;49.506;10.400;2022-09-27T11:20:09;0.80;;;0.80;;
9422;SDS011;4750;49.506;10.400;2022-09-27T11:42:06;1.37;;;1.03;;
9422;SDS011;4750;49.506;10.400;2022-09-27T11:51:11;3.97;;;1.03;;
9422;SDS011;4750;49.506;10.400;2022-09-27T11:54:13;1.43;;;1.17;;
9422;SDS011;4750;49.506;10.400;2022-09-27T12:00:19;1.53;;;1.13;;
9422;SDS011;4750;49.506;10.400;2022-09-27T12:04:03;2.77;;;1.47;;
9422;SDS011;4750;49.506;10.400;2022-09-27T12:09:51;1.50;;;1.40;;
9422;SDS011;4750;49.506;10.400;2022-09-27T12:12:37;2.27;;;1.10;;
9422;SDS011;4750;49.506;10.400;2022-09-27T12:15:27;1.80;;;1.50;;
9422;SDS011;4750;49.506;10.400;2022-09-27T12:18:23;1.23;;;1.17;;
9422;SDS011;4750;49.506;10.400;2022-09-27T12:21:12;2.50;;;1.50;;
9422;SDS011;4750;49.506;10.400;2022-09-27T12:23:58;1.90;;;1.40;;
9422;SDS011;4750;49.506;10.400;2022-09-27T12:26:54;2.27;;;1.50;;
9422;SDS011;4750;49.506;10.400;2022-09-27T12:29:43;2.30;;;1.60;;
9422;SDS011;4750;49.506;10.400;2022-09-27T12:33:17;1.37;;;1.23;;
9422;SDS011;4750;49.506;10.400;2022-09-27T12:35:53;1.00;;;1.00;;
9422;SDS011;4750;49.506;10.400;2022-09-27T12:38:43;1.60;;;1.20;;
9422;SDS011;4750;49.506;10.400;2022-09-27T12:41:53;1.07;;;0.90;;
9422;SDS011;4750;49.506;10.400;2022-09-27T12:44:55;1.87;;;0.93;;
9422;SDS011;4750;49.506;10.400;2022-09-27T12:50:41;1.07;;;0.67;;
9422;SDS011;4750;49.506;10.400;2022-09-27T12:53:30;2.10;;;0.73;;
9422;SDS011;4750;49.506;10.400;2022-09-27T13:12:06;3.23;;;0.90;;
9422;SDS011;4750;49.506;10.400;2022-09-27T13:15:02;0.63;;;0.63;;
9422;SDS011;4750;49.506;10.400;2022-09-27T13:17:50;0.57;;;0.57;;
9422;SDS011;4750;49.506;10.400;2022-09-27T13:20:51;1.77;;;0.80;;
9422;SDS011;4750;49.506;10.400;2022-09-27T13:23:49;0.80;;;0.70;;
9422;SDS011;4750;49.506;10.400;2022-09-27T13:29:23;0.70;;;0.60;;
9422;SDS011;4750;49.506;10.400;2022-09-27T13:32:13;0.73;;;0.67;;
9422;SDS011;4750;49.506;10.400;2022-09-27T13:35:24;0.83;;;0.80;;
9422;SDS011;4750;49.506;10.400;2022-09-27T13:38:23;2.70;;;0.80;;
9422;SDS011;4750;49.506;10.400;2022-09-27T13:41:14;1.07;;;0.87;;
9422;SDS011;4750;49.506;10.400;2022-09-27T13:47:25;0.83;;;0.83;;
9422;SDS011;4750;49.506;10.400;2022-09-27T13:53:39;4.50;;;1.13;;
9422;SDS011;4750;49.506;10.400;2022-09-27T13:59:25;1.87;;;1.10;;
9422;SDS011;4750;49.506;10.400;2022-09-27T14:06:36;1.17;;;1.07;;
9422;SDS011;4750;49.506;10.400;2022-09-27T14:09:31;1.10;;;1.00;;
9422;SDS011;4750;49.506;10.400;2022-09-27T14:12:38;1.47;;;1.00;;
9422;SDS011;4750;49.506;10.400;2022-09-27T14:15:27;2.37;;;2.17;;
9422;SDS011;4750;49.506;10.400;2022-09-27T14:18:15;1.63;;;1.10;;
9422;SDS011;4750;49.506;10.400;2022-09-27T14:21:09;2.07;;;1.40;;
9422;SDS011;4750;49.506;10.400;2022-09-27T14:27:36;3.63;;;1.30;;
9422;SDS011;4750;49.506;10.400;2022-09-27T14:30:37;2.13;;;1.50;;
9422;SDS011;4750;49.506;10.400;2022-09-27T14:33:32;3.23;;;2.23;;
9422;SDS011;4750;49.506;10.400;2022-09-27T14:39:28;0.67;;;0.67;;
9422;SDS011;4750;49.506;10.400;2022-09-27T14:42:22;2.10;;;1.00;;
9422;SDS011;4750;49.506;10.400;2022-09-27T14:51:19;1.30;;;1.17;;
9422;SDS011;4750;49.506;10.400;2022-09-27T14:57:35;0.93;;;0.87;;
9422;SDS011;4750;49.506;10.400;2022-09-27T15:00:20;3.13;;;1.10;;
9422;SDS011;4750;49.506;10.400;2022-09-27T15:03:11;2.30;;;2.10;;
9422;SDS011;4750;49.506;10.400;2022-09-27T15:06:02;1.37;;;1.27;;
9422;SDS011;4750;49.506;10.400;2022-09-27T15:08:47;1.00;;;1.00;;
9422;SDS011;4750;49.506;10.400;2022-09-27T15:11:34;2.33;;;0.83;;
9422;SDS011;4750;49.506;10.400;2022-09-27T15:14:19;0.73;;;0.73;;
9422;SDS011;4750;49.506;10.400;2022-09-27T15:17:05;1.17;;;0.73;;
9422;SDS011;4750;49.506;10.400;2022-09-27T15:20:01;0.70;;;0.70;;
9422;SDS011;4750;49.506;10.400;2022-09-27T15:22:46;1.63;;;0.80;;
9422;SDS011;4750;49.506;10.400;2022-09-27T15:28:18;0.70;;;0.70;;
9422;SDS011;4750;49.506;10.400;2022-09-27T15:31:03;0.70;;;0.70;;
9422;SDS011;4750;49.506;10.400;2022-09-27T15:33:54;1.33;;;1.30;;
9422;SDS011;4750;49.506;10.400;2022-09-27T15:36:53;0.60;;;0.60;;
9422;SDS011;4750;49.506;10.400;2022-09-27T15:39:39;2.20;;;0.80;;
9422;SDS011;4750;49.506;10.400;2022-09-27T15:42:23;1.00;;;0.80;;
9422;SDS011;4750;49.506;10.400;2022-09-27T15:45:25;1.23;;;0.67;;
9422;SDS011;4750;49.506;10.400;2022-09-27T15:48:13;0.67;;;0.67;;
9422;SDS011;4750;49.506;10.400;2022-09-27T15:50:58;1.47;;;1.10;;
9422;SDS011;4750;49.506;10.400;2022-09-27T15:53:43;0.77;;;0.60;;
9422;SDS011;4750;49.506;10.400;2022-09-27T15:56:28;0.97;;;0.70;;
9422;SDS011;4750;49.506;10.400;2022-09-27T15:59:18;2.00;;;0.70;;
9422;SDS011;4750;49.506;10.400;2022-09-27T16:02:14;1.13;;;0.70;;
9422;SDS011;4750;49.506;10.400;2022-09-27T16:04:59;0.93;;;0.80;;
9422;SDS011;4750;49.506;10.400;2022-09-27T16:07:43;0.57;;;0.57;;
9422;SDS011;4750;49.506;10.400;2022-09-27T16:10:44;0.50;;;0.50;;
9422;SDS011;4750;49.506;10.400;2022-09-27T16:13:33;0.80;;;0.80;;
9422;SDS011;4750;49.506;10.400;2022-09-27T16:16:18;1.60;;;0.60;;
9422;SDS011;4750;49.506;10.400;2022-09-27T16:19:03;1.03;;;0.57;;
9422;SDS011;4750;49.506;10.400;2022-09-27T16:21:47;0.63;;;0.63;;
9422;SDS011;4750;49.506;10.400;2022-09-27T16:24:32;2.57;;;0.70;;
9422;SDS011;4750;49.506;10.400;2022-09-27T16:27:25;0.70;;;0.70;;
9422;SDS011;4750;49.506;10.400;2022-09-27T16:30:10;1.10;;;0.70;;
9422;SDS011;4750;49.506;10.400;2022-09-27T16:32:55;0.80;;;0.77;;
9422;SDS011;4750;49.506;10.400;2022-09-27T16:35:39;1.70;;;0.70;;
9422;SDS011;4750;49.506;10.400;2022-09-27T16:38:27;1.30;;;0.93;;
9422;SDS011;4750;49.506;10.400;2022-09-27T16:41:12;0.93;;;0.80;;
9422;SDS011;4750;49.506;10.400;2022-09-27T16:43:56;0.70;;;0.70;;
9422;SDS011;4750;49.506;10.400;2022-09-27T16:46:41;0.90;;;0.90;;
9422;SDS011;4750;49.506;10.400;2022-09-27T16:49:28;1.13;;;0.90;;
9422;SDS011;4750;49.506;10.400;2022-09-27T16:52:32;1.13;;;0.87;;
9422;SDS011;4750;49.506;10.400;2022-09-27T16:55:16;0.83;;;0.83;;
9422;SDS011;4750;49.506;10.400;2022-09-27T16:58:03;0.90;;;0.90;;
9422;SDS011;4750;49.506;10.400;2022-09-27T17:00:48;1.23;;;1.13;;
9422;SDS011;4750;49.506;10.400;2022-09-27T17:03:32;1.47;;;1.00;;
9422;SDS011;4750;49.506;10.400;2022-09-27T17:06:17;1.00;;;0.90;;
9422;SDS011;4750;49.506;10.400;2022-09-27T17:09:02;0.90;;;0.67;;
9422;SDS011;4750;49.506;10.400;2022-09-27T17:11:47;0.90;;;0.70;;
9422;SDS011;4750;49.506;10.400;2022-09-27T17:14:31;8.53;;;5.37;;
9422;SDS011;4750;49.506;10.400;2022-09-27T17:17:15;0.93;;;0.93;;
9422;SDS011;4750;49.506;10.400;2022-09-27T17:20:00;1.70;;;0.93;;
9422;SDS011;4750;49.506;10.400;2022-09-27T17:22:44;1.30;;;1.20;;
9422;SDS011;4750;49.506;10.400;2022-09-27T17:25:28;1.70;;;0.87;;
9422;SDS011;4750;49.506;10.400;2022-09-27T17:28:12;2.67;;;1.10;;
9422;SDS011;4750;49.506;10.400;2022-09-27T17:31:03;2.37;;;0.93;;
9422;SDS011;4750;49.506;10.400;2022-09-27T17:33:53;1.83;;;1.30;;
9422;SDS011;4750;49.506;10.400;2022-09-27T17:36:38;0.80;;;0.80;;
9422;SDS011;4750;49.506;10.400;2022-09-27T17:39:24;0.97;;;0.90;;
9422;SDS011;4750;49.506;10.400;2022-09-27T17:42:08;2.73;;;0.83;;
9422;SDS011;4750;49.506;10.400;2022-09-27T17:44:54;2.37;;;1.50;;
9422;SDS011;4750;49.506;10.400;2022-09-27T17:47:37;3.40;;;1.80;;
9422;SDS011;4750;49.506;10.400;2022-09-27T17:50:44;5.27;;;4.10;;
9422;SDS011;4750;49.506;10.400;2022-09-27T17:53:29;6.43;;;4.67;;
9422;SDS011;4750;49.506;10.400;2022-09-27T17:56:13;10.13;;;7.97;;
9422;SDS011;4750;49.506;10.400;2022-09-27T17:58:58;5.27;;;3.20;;
9422;SDS011;4750;49.506;10.400;2022-09-27T18:01:44;4.80;;;3.63;;
9422;SDS011;4750;49.506;10.400;2022-09-27T18:04:30;3.47;;;1.87;;
9422;SDS011;4750;49.506;10.400;2022-09-27T18:07:14;2.93;;;2.63;;
9422;SDS011;4750;49.506;10.400;2022-09-27T18:09:58;3.20;;;2.00;;
9422;SDS011;4750;49.506;10.400;2022-09-27T18:12:42;2.47;;;1.57;;
9422;SDS011;4750;49.506;10.400;2022-09-27T18:15:26;1.17;;;1.10;;
9422;SDS011;4750;49.506;10.400;2022-09-27T18:18:11;1.63;;;1.17;;
9422;SDS011;4750;49.506;10.400;2022-09-27T18:20:59;1.10;;;1.00;;
9422;SDS011;4750;49.506;10.400;2022-09-27T18:23:43;2.33;;;2.13;;
9422;SDS011;4750;49.506;10.400;2022-09-27T18:26:28;1.03;;;1.03;;
9422;SDS011;4750;49.506;10.400;2022-09-27T18:29:12;1.93;;;1.20;;
9422;SDS011;4750;49.506;10.400;2022-09-27T18:31:58;1.03;;;1.00;;
9422;SDS011;4750;49.506;10.400;2022-09-27T18:34:42;1.23;;;1.10;;
9422;SDS011;4750;49.506;10.400;2022-09-27T18:37:28;2.60;;;1.10;;
9422;SDS011;4750;49.506;10.400;2022-09-27T18:40:12;1.63;;;1.10;;
9422;SDS011;4750;49.506;10.400;2022-09-27T18:42:56;4.97;;;1.50;;
9422;SDS011;4750;49.506;10.400;2022-09-27T18:45:40;2.20;;;1.20;;
9422;SDS011;4750;49.506;10.400;2022-09-27T18:48:24;1.87;;;1.27;;
9422;SDS011;4750;49.506;10.400;2022-09-27T18:51:10;2.47;;;1.63;;
9422;SDS011;4750;49.506;10.400;2022-09-27T18:54:00;1.77;;;1.30;;
9422;SDS011;4750;49.506;10.400;2022-09-27T18:56:47;1.30;;;1.20;;
9422;SDS011;4750;49.506;10.400;2022-09-27T18:59:32;3.90;;;1.40;;
9422;SDS011;4750;49.506;10.400;2022-09-27T19:02:17;2.43;;;1.50;;
9422;SDS011;4750;49.506;10.400;2022-09-27T19:05:01;1.40;;;1.30;;
9422;SDS011;4750;49.506;10.400;2022-09-27T19:07:46;3.70;;;1.37;;
9422;SDS011;4750;49.506;10.400;2022-09-27T19:10:29;2.83;;;1.33;;
9422;SDS011;4750;49.506;10.400;2022-09-27T19:13:13;1.77;;;1.47;;
9422;SDS011;4750;49.506;10.400;2022-09-27T19:15:58;2.50;;;1.30;;
9422;SDS011;4750;49.506;10.400;2022-09-27T19:18:42;2.83;;;1.50;;
9422;SDS011;4750;49.506;10.400;2022-09-27T19:21:27;2.43;;;1.53;;
9422;SDS011;4750;49.506;10.400;2022-09-27T19:24:12;2.10;;;1.50;;
9422;SDS011;4750;49.506;10.400;2022-09-27T19:26:57;1.63;;;1.33;;
9422;SDS011;4750;49.506;10.400;2022-09-27T19:29:41;1.83;;;1.50;;
9422;SDS011;4750;49.506;10.400;2022-09-27T19:32:25;1.60;;;1.50;;
9422;SDS011;4750;49.506;10.400;2022-09-27T19:35:09;2.70;;;1.50;;
9422;SDS011;4750;49.506;10.400;2022-09-27T19:37:54;1.30;;;1.20;;
9422;SDS011;4750;49.506;10.400;2022-09-27T19:40:38;1.87;;;1.70;;
9422;SDS011;4750;49.506;10.400;2022-09-27T19:43:22;1.90;;;1.80;;
9422;SDS011;4750;49.506;10.400;2022-09-27T19:46:15;1.70;;;1.60;;
9422;SDS011;4750;49.506;10.400;2022-09-27T19:49:00;3.13;;;1.60;;
9422;SDS011;4750;49.506;10.400;2022-09-27T19:51:44;2.13;;;1.30;;
9422;SDS011;4750;49.506;10.400;2022-09-27T19:54:28;1.97;;;1.43;;
9422;SDS011;4750;49.506;10.400;2022-09-27T19:57:12;2.83;;;1.40;;
9422;SDS011;4750;49.506;10.400;2022-09-27T19:59:56;2.07;;;1.30;;
9422;SDS011;4750;49.506;10.400;2022-09-27T20:02:40;5.70;;;1.60;;
9422;SDS011;4750;49.506;10.400;2022-09-27T20:05:25;1.60;;;1.17;;